sensor_id;sensor_type;location;lat;lon;timestamp;P1;durP1;ratioP1;P2;durP2;ratioP2
41629;SDS011;27322;49.488;8.480;2023-04-24T00:02:13;2.97;;;0.82;;
41629;SDS011;27322;49.488;8.480;2023-04-24T00:04:39;2.10;;;0.80;;
41629;SDS011;27322;49.488;8.480;2023-04-24T00:07:05;2.47;;;0.80;;
41629;SDS011;27322;49.488;8.480;2023-04-24T00:09:31;1.83;;;0.70;;
41629;SDS011;27322;49.488;8.480;2023-04-24T00:11:58;2.10;;;0.70;;
41629;SDS011;27322;49.488;8.480;2023-04-24T00:14:23;1.65;;;0.70;;
41629;SDS011;27322;49.488;8.480;2023-04-24T00:16:49;1.98;;;0.70;;
41629;SDS011;27322;49.488;8.480;2023-04-24T00:19:15;2.40;;;0.85;;
41629;SDS011;27322;49.488;8.480;2023-04-24T00:21:41;2.65;;;0.77;;
41629;SDS011;27322;49.488;8.480;2023-04-24T00:24:07;1.73;;;0.73;;
41629;SDS011;27322;49.488;8.480;2023-04-24T00:26:34;4.75;;;0.80;;
41629;SDS011;27322;49.488;8.480;2023-04-24T00:28:59;2.45;;;0.88;;
41629;SDS011;27322;49.488;8.480;2023-04-24T00:31:25;1.77;;;0.80;;
41629;SDS011;27322;49.488;8.480;2023-04-24T00:33:51;2.47;;;0.80;;
41629;SDS011;27322;49.488;8.480;2023-04-24T00:36:16;1.60;;;0.70;;
41629;SDS011;27322;49.488;8.480;2023-04-24T00:38:44;2.33;;;0.80;;
41629;SDS011;27322;49.488;8.480;2023-04-24T00:41:10;3.17;;;1.02;;
41629;SDS011;27322;49.488;8.480;2023-04-24T00:43:36;3.15;;;0.88;;
41629;SDS011;27322;49.488;8.480;2023-04-24T00:46:01;4.88;;;1.20;;
41629;SDS011;27322;49.488;8.480;2023-04-24T00:48:27;2.22;;;1.00;;
41629;SDS011;27322;49.488;8.480;2023-04-24T00:50:53;1.60;;;0.90;;
41629;SDS011;27322;49.488;8.480;2023-04-24T00:53:19;3.03;;;0.85;;
41629;SDS011;27322;49.488;8.480;2023-04-24T00:55:44;2.72;;;0.80;;
41629;SDS011;27322;49.488;8.480;2023-04-24T00:58:11;2.92;;;0.80;;
41629;SDS011;27322;49.488;8.480;2023-04-24T01:00:37;2.22;;;0.80;;
41629;SDS011;27322;49.488;8.480;2023-04-24T01:03:04;1.60;;;0.70;;
41629;SDS011;27322;49.488;8.480;2023-04-24T01:05:30;4.68;;;0.80;;
41629;SDS011;27322;49.488;8.480;2023-04-24T01:07:57;2.97;;;0.88;;
41629;SDS011;27322;49.488;8.480;2023-04-24T01:10:24;3.20;;;0.90;;
41629;SDS011;27322;49.488;8.480;2023-04-24T01:12:52;2.70;;;1.00;;
41629;SDS011;27322;49.488;8.480;2023-04-24T01:15:18;3.85;;;1.10;;
41629;SDS011;27322;49.488;8.480;2023-04-24T01:17:44;2.15;;;0.80;;
41629;SDS011;27322;49.488;8.480;2023-04-24T01:20:10;3.00;;;0.90;;
41629;SDS011;27322;49.488;8.480;2023-04-24T01:22:36;1.40;;;0.70;;
41629;SDS011;27322;49.488;8.480;2023-04-24T01:25:02;2.30;;;1.00;;
41629;SDS011;27322;49.488;8.480;2023-04-24T01:27:28;3.85;;;1.00;;
41629;SDS011;27322;49.488;8.480;2023-04-24T01:29:54;3.10;;;1.20;;
41629;SDS011;27322;49.488;8.480;2023-04-24T01:32:20;3.05;;;1.00;;
41629;SDS011;27322;49.488;8.480;2023-04-24T01:34:46;3.10;;;0.80;;
41629;SDS011;27322;49.488;8.480;2023-04-24T01:37:12;1.35;;;0.70;;
41629;SDS011;27322;49.488;8.480;2023-04-24T01:39:37;2.90;;;0.90;;
41629;SDS011;27322;49.488;8.480;2023-04-24T01:42:04;1.75;;;0.80;;
41629;SDS011;27322;49.488;8.480;2023-04-24T01:44:30;1.33;;;0.65;;
41629;SDS011;27322;49.488;8.480;2023-04-24T01:46:56;3.95;;;1.02;;
41629;SDS011;27322;49.488;8.480;2023-04-24T01:49:21;2.67;;;0.90;;
41629;SDS011;27322;49.488;8.480;2023-04-24T01:51:47;1.55;;;0.70;;
41629;SDS011;27322;49.488;8.480;2023-04-24T01:54:13;2.40;;;0.70;;
41629;SDS011;27322;49.488;8.480;2023-04-24T01:56:42;2.63;;;0.70;;
41629;SDS011;27322;49.488;8.480;2023-04-24T01:59:12;2.60;;;0.93;;
41629;SDS011;27322;49.488;8.480;2023-04-24T02:01:38;3.78;;;0.80;;
41629;SDS011;27322;49.488;8.480;2023-04-24T02:04:04;1.88;;;0.90;;
41629;SDS011;27322;49.488;8.480;2023-04-24T02:06:31;1.73;;;0.88;;
41629;SDS011;27322;49.488;8.480;2023-04-24T02:08:57;4.18;;;0.90;;
41629;SDS011;27322;49.488;8.480;2023-04-24T02:11:23;3.03;;;0.80;;
41629;SDS011;27322;49.488;8.480;2023-04-24T02:13:49;3.25;;;0.90;;
41629;SDS011;27322;49.488;8.480;2023-04-24T02:16:16;3.75;;;0.80;;
41629;SDS011;27322;49.488;8.480;2023-04-24T02:18:42;2.45;;;0.77;;
41629;SDS011;27322;49.488;8.480;2023-04-24T02:21:07;4.25;;;1.17;;
41629;SDS011;27322;49.488;8.480;2023-04-24T02:23:33;3.28;;;0.68;;
41629;SDS011;27322;49.488;8.480;2023-04-24T02:25:58;2.42;;;0.80;;
41629;SDS011;27322;49.488;8.480;2023-04-24T02:28:24;2.38;;;0.68;;
41629;SDS011;27322;49.488;8.480;2023-04-24T02:30:50;2.22;;;0.68;;
41629;SDS011;27322;49.488;8.480;2023-04-24T02:33:16;4.40;;;0.90;;
41629;SDS011;27322;49.488;8.480;2023-04-24T02:35:41;1.95;;;0.65;;
41629;SDS011;27322;49.488;8.480;2023-04-24T02:38:07;2.15;;;0.70;;
41629;SDS011;27322;49.488;8.480;2023-04-24T02:40:33;3.65;;;0.80;;
41629;SDS011;27322;49.488;8.480;2023-04-24T02:42:58;2.97;;;0.90;;
41629;SDS011;27322;49.488;8.480;2023-04-24T02:45:24;4.20;;;0.90;;
41629;SDS011;27322;49.488;8.480;2023-04-24T02:47:49;3.60;;;0.80;;
41629;SDS011;27322;49.488;8.480;2023-04-24T02:50:15;3.05;;;0.90;;
41629;SDS011;27322;49.488;8.480;2023-04-24T02:52:41;2.90;;;0.80;;
41629;SDS011;27322;49.488;8.480;2023-04-24T02:55:06;2.75;;;0.95;;
41629;SDS011;27322;49.488;8.480;2023-04-24T02:57:33;2.58;;;0.80;;
41629;SDS011;27322;49.488;8.480;2023-04-24T02:59:59;2.33;;;1.00;;
41629;SDS011;27322;49.488;8.480;2023-04-24T03:02:24;2.20;;;0.80;;
41629;SDS011;27322;49.488;8.480;2023-04-24T03:04:50;2.70;;;0.85;;
41629;SDS011;27322;49.488;8.480;2023-04-24T03:07:16;2.60;;;0.80;;
41629;SDS011;27322;49.488;8.480;2023-04-24T03:09:41;2.17;;;0.82;;
41629;SDS011;27322;49.488;8.480;2023-04-24T03:12:07;2.35;;;0.80;;
41629;SDS011;27322;49.488;8.480;2023-04-24T03:14:33;1.90;;;0.90;;
41629;SDS011;27322;49.488;8.480;2023-04-24T03:16:58;4.10;;;1.23;;
41629;SDS011;27322;49.488;8.480;2023-04-24T03:19:24;3.10;;;1.30;;
41629;SDS011;27322;49.488;8.480;2023-04-24T03:21:50;2.33;;;0.98;;
41629;SDS011;27322;49.488;8.480;2023-04-24T03:24:15;3.60;;;1.20;;
41629;SDS011;27322;49.488;8.480;2023-04-24T03:26:41;2.72;;;1.13;;
41629;SDS011;27322;49.488;8.480;2023-04-24T03:29:07;3.58;;;1.20;;
41629;SDS011;27322;49.488;8.480;2023-04-24T03:31:32;2.38;;;0.98;;
41629;SDS011;27322;49.488;8.480;2023-04-24T03:33:58;2.15;;;1.00;;
41629;SDS011;27322;49.488;8.480;2023-04-24T03:36:23;3.10;;;1.10;;
41629;SDS011;27322;49.488;8.480;2023-04-24T03:38:49;2.97;;;1.15;;
41629;SDS011;27322;49.488;8.480;2023-04-24T03:41:14;2.97;;;1.30;;
41629;SDS011;27322;49.488;8.480;2023-04-24T03:43:40;2.88;;;1.10;;
41629;SDS011;27322;49.488;8.480;2023-04-24T03:46:06;2.63;;;1.20;;
41629;SDS011;27322;49.488;8.480;2023-04-24T03:48:34;2.05;;;0.95;;
41629;SDS011;27322;49.488;8.480;2023-04-24T03:50:59;2.20;;;1.10;;
41629;SDS011;27322;49.488;8.480;2023-04-24T03:53:25;3.60;;;1.10;;
41629;SDS011;27322;49.488;8.480;2023-04-24T03:55:51;4.32;;;0.95;;
41629;SDS011;27322;49.488;8.480;2023-04-24T03:58:18;2.03;;;1.02;;
41629;SDS011;27322;49.488;8.480;2023-04-24T04:00:44;1.60;;;0.90;;
41629;SDS011;27322;49.488;8.480;2023-04-24T04:03:11;3.58;;;1.00;;
41629;SDS011;27322;49.488;8.480;2023-04-24T04:05:38;3.40;;;1.10;;
41629;SDS011;27322;49.488;8.480;2023-04-24T04:08:03;2.53;;;1.08;;
41629;SDS011;27322;49.488;8.480;2023-04-24T04:10:29;2.95;;;1.10;;
41629;SDS011;27322;49.488;8.480;2023-04-24T04:12:54;2.38;;;1.17;;
41629;SDS011;27322;49.488;8.480;2023-04-24T04:15:20;2.50;;;1.15;;
41629;SDS011;27322;49.488;8.480;2023-04-24T04:17:46;3.10;;;1.17;;
41629;SDS011;27322;49.488;8.480;2023-04-24T04:20:12;3.33;;;1.20;;
41629;SDS011;27322;49.488;8.480;2023-04-24T04:22:38;3.75;;;1.30;;
41629;SDS011;27322;49.488;8.480;2023-04-24T04:25:04;3.60;;;1.30;;
41629;SDS011;27322;49.488;8.480;2023-04-24T04:27:30;3.70;;;1.55;;
41629;SDS011;27322;49.488;8.480;2023-04-24T04:29:59;4.47;;;1.92;;
41629;SDS011;27322;49.488;8.480;2023-04-24T04:32:30;4.00;;;1.38;;
41629;SDS011;27322;49.488;8.480;2023-04-24T04:35:02;2.30;;;1.30;;
41629;SDS011;27322;49.488;8.480;2023-04-24T04:37:29;3.50;;;1.65;;
41629;SDS011;27322;49.488;8.480;2023-04-24T04:39:55;3.28;;;1.77;;
41629;SDS011;27322;49.488;8.480;2023-04-24T04:42:20;3.00;;;1.77;;
41629;SDS011;27322;49.488;8.480;2023-04-24T04:44:46;3.42;;;1.60;;
41629;SDS011;27322;49.488;8.480;2023-04-24T04:47:12;4.55;;;1.90;;
41629;SDS011;27322;49.488;8.480;2023-04-24T04:49:38;4.40;;;1.77;;
41629;SDS011;27322;49.488;8.480;2023-04-24T04:52:03;3.70;;;1.80;;
41629;SDS011;27322;49.488;8.480;2023-04-24T04:54:29;6.28;;;2.00;;
41629;SDS011;27322;49.488;8.480;2023-04-24T04:56:55;4.88;;;2.53;;
41629;SDS011;27322;49.488;8.480;2023-04-24T04:59:22;3.65;;;2.28;;
41629;SDS011;27322;49.488;8.480;2023-04-24T05:01:48;9.10;;;2.65;;
41629;SDS011;27322;49.488;8.480;2023-04-24T05:04:13;7.35;;;2.50;;
41629;SDS011;27322;49.488;8.480;2023-04-24T05:06:39;4.13;;;2.30;;
41629;SDS011;27322;49.488;8.480;2023-04-24T05:09:05;6.93;;;2.80;;
41629;SDS011;27322;49.488;8.480;2023-04-24T05:11:32;5.47;;;3.00;;
41629;SDS011;27322;49.488;8.480;2023-04-24T05:13:57;8.02;;;4.35;;
41629;SDS011;27322;49.488;8.480;2023-04-24T05:16:23;6.15;;;2.90;;
41629;SDS011;27322;49.488;8.480;2023-04-24T05:18:49;5.55;;;2.83;;
41629;SDS011;27322;49.488;8.480;2023-04-24T05:21:14;8.35;;;2.83;;
41629;SDS011;27322;49.488;8.480;2023-04-24T05:23:40;8.85;;;3.47;;
41629;SDS011;27322;49.488;8.480;2023-04-24T05:26:05;7.13;;;3.33;;
41629;SDS011;27322;49.488;8.480;2023-04-24T05:28:31;9.60;;;2.97;;
41629;SDS011;27322;49.488;8.480;2023-04-24T05:30:57;8.45;;;3.42;;
41629;SDS011;27322;49.488;8.480;2023-04-24T05:33:24;4.80;;;3.03;;
41629;SDS011;27322;49.488;8.480;2023-04-24T05:35:49;4.97;;;2.90;;
41629;SDS011;27322;49.488;8.480;2023-04-24T05:38:15;4.97;;;2.97;;
41629;SDS011;27322;49.488;8.480;2023-04-24T05:40:45;6.40;;;3.20;;
41629;SDS011;27322;49.488;8.480;2023-04-24T05:43:11;6.20;;;3.63;;
41629;SDS011;27322;49.488;8.480;2023-04-24T05:45:37;7.57;;;4.00;;
41629;SDS011;27322;49.488;8.480;2023-04-24T05:48:03;7.05;;;3.80;;
41629;SDS011;27322;49.488;8.480;2023-04-24T05:50:29;6.00;;;3.47;;
41629;SDS011;27322;49.488;8.480;2023-04-24T05:52:55;6.13;;;3.40;;
41629;SDS011;27322;49.488;8.480;2023-04-24T05:55:23;7.15;;;3.67;;
41629;SDS011;27322;49.488;8.480;2023-04-24T05:57:51;6.80;;;3.53;;
41629;SDS011;27322;49.488;8.480;2023-04-24T06:00:17;6.82;;;3.72;;
41629;SDS011;27322;49.488;8.480;2023-04-24T06:02:44;6.10;;;3.20;;
41629;SDS011;27322;49.488;8.480;2023-04-24T06:05:10;6.30;;;3.33;;
41629;SDS011;27322;49.488;8.480;2023-04-24T06:07:36;7.30;;;3.28;;
41629;SDS011;27322;49.488;8.480;2023-04-24T06:10:01;6.82;;;3.38;;
41629;SDS011;27322;49.488;8.480;2023-04-24T06:12:27;6.28;;;3.33;;
41629;SDS011;27322;49.488;8.480;2023-04-24T06:14:53;6.40;;;3.38;;
41629;SDS011;27322;49.488;8.480;2023-04-24T06:17:20;6.63;;;3.50;;
41629;SDS011;27322;49.488;8.480;2023-04-24T06:19:46;8.93;;;3.53;;
41629;SDS011;27322;49.488;8.480;2023-04-24T06:22:12;9.32;;;3.30;;
41629;SDS011;27322;49.488;8.480;2023-04-24T06:24:39;4.80;;;3.15;;
41629;SDS011;27322;49.488;8.480;2023-04-24T06:27:05;8.45;;;3.13;;
41629;SDS011;27322;49.488;8.480;2023-04-24T06:29:30;10.07;;;3.53;;
41629;SDS011;27322;49.488;8.480;2023-04-24T06:31:56;4.53;;;2.90;;
41629;SDS011;27322;49.488;8.480;2023-04-24T06:34:22;7.75;;;3.15;;
41629;SDS011;27322;49.488;8.480;2023-04-24T06:36:47;5.45;;;2.78;;
41629;SDS011;27322;49.488;8.480;2023-04-24T06:39:13;4.78;;;2.95;;
41629;SDS011;27322;49.488;8.480;2023-04-24T06:41:38;5.00;;;2.70;;
41629;SDS011;27322;49.488;8.480;2023-04-24T06:44:04;5.10;;;2.38;;
41629;SDS011;27322;49.488;8.480;2023-04-24T06:46:30;7.28;;;2.17;;
41629;SDS011;27322;49.488;8.480;2023-04-24T06:48:56;3.60;;;1.80;;
41629;SDS011;27322;49.488;8.480;2023-04-24T06:51:25;4.75;;;1.92;;
41629;SDS011;27322;49.488;8.480;2023-04-24T06:53:52;3.88;;;2.00;;
41629;SDS011;27322;49.488;8.480;2023-04-24T06:56:18;4.95;;;1.38;;
41629;SDS011;27322;49.488;8.480;2023-04-24T06:58:45;1.77;;;1.10;;
41629;SDS011;27322;49.488;8.480;2023-04-24T07:01:11;3.38;;;0.98;;
41629;SDS011;27322;49.488;8.480;2023-04-24T07:03:36;2.43;;;1.00;;
41629;SDS011;27322;49.488;8.480;2023-04-24T07:06:02;3.05;;;1.30;;
41629;SDS011;27322;49.488;8.480;2023-04-24T07:08:28;6.32;;;1.60;;
41629;SDS011;27322;49.488;8.480;2023-04-24T07:10:55;4.50;;;1.33;;
41629;SDS011;27322;49.488;8.480;2023-04-24T07:13:22;2.55;;;1.13;;
41629;SDS011;27322;49.488;8.480;2023-04-24T07:15:48;2.60;;;1.20;;
41629;SDS011;27322;49.488;8.480;2023-04-24T07:18:18;10.32;;;1.42;;
41629;SDS011;27322;49.488;8.480;2023-04-24T07:20:45;3.00;;;1.10;;
41629;SDS011;27322;49.488;8.480;2023-04-24T07:23:10;5.47;;;1.38;;
41629;SDS011;27322;49.488;8.480;2023-04-24T07:25:36;2.38;;;1.10;;
41629;SDS011;27322;49.488;8.480;2023-04-24T07:28:03;2.10;;;1.00;;
41629;SDS011;27322;49.488;8.480;2023-04-24T07:30:29;3.13;;;1.20;;
41629;SDS011;27322;49.488;8.480;2023-04-24T07:32:55;5.40;;;1.30;;
41629;SDS011;27322;49.488;8.480;2023-04-24T07:35:21;3.47;;;1.02;;
41629;SDS011;27322;49.488;8.480;2023-04-24T07:37:47;2.90;;;1.35;;
41629;SDS011;27322;49.488;8.480;2023-04-24T07:40:13;5.32;;;1.30;;
41629;SDS011;27322;49.488;8.480;2023-04-24T07:42:39;5.63;;;1.33;;
41629;SDS011;27322;49.488;8.480;2023-04-24T07:45:05;3.45;;;1.52;;
41629;SDS011;27322;49.488;8.480;2023-04-24T07:47:31;2.90;;;1.33;;
41629;SDS011;27322;49.488;8.480;2023-04-24T07:49:57;3.00;;;1.38;;
41629;SDS011;27322;49.488;8.480;2023-04-24T07:52:24;5.32;;;1.40;;
41629;SDS011;27322;49.488;8.480;2023-04-24T07:54:49;6.72;;;1.42;;
41629;SDS011;27322;49.488;8.480;2023-04-24T07:57:15;3.67;;;1.60;;
41629;SDS011;27322;49.488;8.480;2023-04-24T07:59:42;4.95;;;1.40;;
41629;SDS011;27322;49.488;8.480;2023-04-24T08:02:08;2.53;;;1.13;;
41629;SDS011;27322;49.488;8.480;2023-04-24T08:04:34;4.05;;;1.60;;
41629;SDS011;27322;49.488;8.480;2023-04-24T08:07:00;3.17;;;1.60;;
41629;SDS011;27322;49.488;8.480;2023-04-24T08:09:25;6.43;;;1.90;;
41629;SDS011;27322;49.488;8.480;2023-04-24T08:11:51;4.25;;;1.90;;
41629;SDS011;27322;49.488;8.480;2023-04-24T08:14:18;3.63;;;1.50;;
41629;SDS011;27322;49.488;8.480;2023-04-24T08:16:43;3.45;;;1.63;;
41629;SDS011;27322;49.488;8.480;2023-04-24T08:19:09;3.90;;;1.30;;
41629;SDS011;27322;49.488;8.480;2023-04-24T08:21:35;2.85;;;1.10;;
41629;SDS011;27322;49.488;8.480;2023-04-24T08:24:00;3.15;;;1.10;;
41629;SDS011;27322;49.488;8.480;2023-04-24T08:26:30;5.97;;;1.25;;
41629;SDS011;27322;49.488;8.480;2023-04-24T08:28:55;3.80;;;1.50;;
41629;SDS011;27322;49.488;8.480;2023-04-24T08:31:21;2.58;;;1.20;;
41629;SDS011;27322;49.488;8.480;2023-04-24T08:33:47;3.30;;;1.50;;
41629;SDS011;27322;49.488;8.480;2023-04-24T08:36:13;7.22;;;1.60;;
41629;SDS011;27322;49.488;8.480;2023-04-24T08:38:38;13.35;;;1.75;;
41629;SDS011;27322;49.488;8.480;2023-04-24T08:41:04;3.25;;;1.55;;
41629;SDS011;27322;49.488;8.480;2023-04-24T08:43:32;3.80;;;1.40;;
41629;SDS011;27322;49.488;8.480;2023-04-24T08:45:58;4.68;;;1.63;;
41629;SDS011;27322;49.488;8.480;2023-04-24T08:48:24;5.53;;;1.70;;
41629;SDS011;27322;49.488;8.480;2023-04-24T08:50:51;5.03;;;1.58;;
41629;SDS011;27322;49.488;8.480;2023-04-24T08:53:17;4.65;;;1.83;;
41629;SDS011;27322;49.488;8.480;2023-04-24T08:55:43;4.47;;;1.50;;
41629;SDS011;27322;49.488;8.480;2023-04-24T08:58:12;4.45;;;1.77;;
41629;SDS011;27322;49.488;8.480;2023-04-24T09:00:38;4.45;;;1.60;;
41629;SDS011;27322;49.488;8.480;2023-04-24T09:03:05;6.07;;;1.70;;
41629;SDS011;27322;49.488;8.480;2023-04-24T09:05:31;4.75;;;2.00;;
41629;SDS011;27322;49.488;8.480;2023-04-24T09:07:58;4.32;;;1.30;;
41629;SDS011;27322;49.488;8.480;2023-04-24T09:10:27;2.90;;;1.60;;
41629;SDS011;27322;49.488;8.480;2023-04-24T09:12:55;3.22;;;1.42;;
41629;SDS011;27322;49.488;8.480;2023-04-24T09:15:23;3.80;;;1.50;;
41629;SDS011;27322;49.488;8.480;2023-04-24T09:17:49;3.65;;;1.50;;
41629;SDS011;27322;49.488;8.480;2023-04-24T09:20:15;6.00;;;1.65;;
41629;SDS011;27322;49.488;8.480;2023-04-24T09:22:41;4.25;;;1.60;;
41629;SDS011;27322;49.488;8.480;2023-04-24T09:25:08;4.13;;;1.50;;
41629;SDS011;27322;49.488;8.480;2023-04-24T09:27:36;2.90;;;1.33;;
41629;SDS011;27322;49.488;8.480;2023-04-24T09:30:07;11.57;;;2.10;;
41629;SDS011;27322;49.488;8.480;2023-04-24T09:32:33;10.23;;;1.92;;
41629;SDS011;27322;49.488;8.480;2023-04-24T09:37:38;3.42;;;1.50;;
41629;SDS011;27322;49.488;8.480;2023-04-24T09:40:15;5.03;;;1.75;;
41629;SDS011;27322;49.488;8.480;2023-04-24T09:42:52;5.05;;;1.60;;
41629;SDS011;27322;49.488;8.480;2023-04-24T09:45:21;5.25;;;1.77;;
41629;SDS011;27322;49.488;8.480;2023-04-24T09:47:51;4.65;;;2.20;;
41629;SDS011;27322;49.488;8.480;2023-04-24T09:50:18;3.65;;;1.58;;
41629;SDS011;27322;49.488;8.480;2023-04-24T09:52:44;6.45;;;2.00;;
41629;SDS011;27322;49.488;8.480;2023-04-24T09:55:29;6.85;;;2.05;;
41629;SDS011;27322;49.488;8.480;2023-04-24T09:57:59;5.82;;;1.90;;
41629;SDS011;27322;49.488;8.480;2023-04-24T10:00:27;3.75;;;1.70;;
41629;SDS011;27322;49.488;8.480;2023-04-24T10:02:54;4.47;;;2.05;;
41629;SDS011;27322;49.488;8.480;2023-04-24T10:05:28;3.17;;;1.50;;
41629;SDS011;27322;49.488;8.480;2023-04-24T10:07:56;5.35;;;1.60;;
41629;SDS011;27322;49.488;8.480;2023-04-24T10:10:27;6.88;;;1.40;;
41629;SDS011;27322;49.488;8.480;2023-04-24T10:12:53;4.03;;;1.42;;
41629;SDS011;27322;49.488;8.480;2023-04-24T10:15:20;4.72;;;1.70;;
41629;SDS011;27322;49.488;8.480;2023-04-24T10:17:49;5.10;;;1.60;;
41629;SDS011;27322;49.488;8.480;2023-04-24T10:20:19;4.20;;;1.27;;
41629;SDS011;27322;49.488;8.480;2023-04-24T10:22:49;4.30;;;1.42;;
41629;SDS011;27322;49.488;8.480;2023-04-24T10:25:17;3.40;;;1.48;;
41629;SDS011;27322;49.488;8.480;2023-04-24T10:27:49;7.05;;;1.38;;
41629;SDS011;27322;49.488;8.480;2023-04-24T10:30:16;4.05;;;1.33;;
41629;SDS011;27322;49.488;8.480;2023-04-24T10:32:43;2.30;;;1.10;;
41629;SDS011;27322;49.488;8.480;2023-04-24T10:35:09;3.38;;;1.20;;
41629;SDS011;27322;49.488;8.480;2023-04-24T10:37:38;4.15;;;1.40;;
41629;SDS011;27322;49.488;8.480;2023-04-24T10:40:10;2.58;;;1.33;;
41629;SDS011;27322;49.488;8.480;2023-04-24T10:42:40;4.63;;;1.60;;
41629;SDS011;27322;49.488;8.480;2023-04-24T10:45:18;4.03;;;1.60;;
41629;SDS011;27322;49.488;8.480;2023-04-24T10:47:53;3.83;;;1.42;;
41629;SDS011;27322;49.488;8.480;2023-04-24T10:50:21;3.42;;;1.70;;
41629;SDS011;27322;49.488;8.480;2023-04-24T10:52:47;6.55;;;1.80;;
41629;SDS011;27322;49.488;8.480;2023-04-24T10:55:16;5.60;;;1.75;;
41629;SDS011;27322;49.488;8.480;2023-04-24T10:58:02;5.93;;;2.00;;
41629;SDS011;27322;49.488;8.480;2023-04-24T11:00:29;6.72;;;1.73;;
41629;SDS011;27322;49.488;8.480;2023-04-24T11:02:54;4.00;;;1.80;;
41629;SDS011;27322;49.488;8.480;2023-04-24T11:05:21;5.22;;;1.80;;
41629;SDS011;27322;49.488;8.480;2023-04-24T11:08:36;5.78;;;1.77;;
41629;SDS011;27322;49.488;8.480;2023-04-24T11:10:44;3.58;;;1.98;;
41629;SDS011;27322;49.488;8.480;2023-04-24T11:13:12;4.75;;;1.83;;
41629;SDS011;27322;49.488;8.480;2023-04-24T11:15:46;3.80;;;1.83;;
41629;SDS011;27322;49.488;8.480;2023-04-24T11:18:45;3.67;;;1.83;;
41629;SDS011;27322;49.488;8.480;2023-04-24T11:21:19;7.17;;;2.03;;
41629;SDS011;27322;49.488;8.480;2023-04-24T11:23:45;5.90;;;2.03;;
41629;SDS011;27322;49.488;8.480;2023-04-24T11:28:43;4.65;;;2.10;;
41629;SDS011;27322;49.488;8.480;2023-04-24T11:31:33;6.28;;;2.20;;
41629;SDS011;27322;49.488;8.480;2023-04-24T11:34:07;7.30;;;2.70;;
41629;SDS011;27322;49.488;8.480;2023-04-24T11:36:33;5.75;;;2.40;;
41629;SDS011;27322;49.488;8.480;2023-04-24T11:39:00;4.82;;;2.20;;
41629;SDS011;27322;49.488;8.480;2023-04-24T11:41:26;9.23;;;2.50;;
41629;SDS011;27322;49.488;8.480;2023-04-24T11:43:52;5.63;;;2.20;;
41629;SDS011;27322;49.488;8.480;2023-04-24T11:46:20;5.88;;;2.80;;
41629;SDS011;27322;49.488;8.480;2023-04-24T11:48:46;6.43;;;2.20;;
41629;SDS011;27322;49.488;8.480;2023-04-24T11:51:13;8.20;;;2.53;;
41629;SDS011;27322;49.488;8.480;2023-04-24T11:53:38;6.20;;;2.40;;
41629;SDS011;27322;49.488;8.480;2023-04-24T11:56:04;5.20;;;2.55;;
41629;SDS011;27322;49.488;8.480;2023-04-24T11:58:40;6.43;;;2.40;;
41629;SDS011;27322;49.488;8.480;2023-04-24T12:01:05;5.38;;;2.25;;
41629;SDS011;27322;49.488;8.480;2023-04-24T12:03:31;4.22;;;2.20;;
41629;SDS011;27322;49.488;8.480;2023-04-24T12:06:06;5.13;;;2.60;;
41629;SDS011;27322;49.488;8.480;2023-04-24T12:08:36;3.97;;;2.08;;
41629;SDS011;27322;49.488;8.480;2023-04-24T12:11:04;5.72;;;2.80;;
41629;SDS011;27322;49.488;8.480;2023-04-24T12:13:32;6.40;;;2.20;;
41629;SDS011;27322;49.488;8.480;2023-04-24T12:15:58;3.85;;;2.40;;
41629;SDS011;27322;49.488;8.480;2023-04-24T12:18:24;3.88;;;2.08;;
41629;SDS011;27322;49.488;8.480;2023-04-24T12:20:51;4.35;;;2.08;;
41629;SDS011;27322;49.488;8.480;2023-04-24T12:23:28;4.93;;;2.30;;
41629;SDS011;27322;49.488;8.480;2023-04-24T12:25:59;4.13;;;2.30;;
41629;SDS011;27322;49.488;8.480;2023-04-24T12:28:34;4.97;;;2.20;;
41629;SDS011;27322;49.488;8.480;2023-04-24T12:31:03;4.00;;;2.28;;
41629;SDS011;27322;49.488;8.480;2023-04-24T12:33:32;5.93;;;2.20;;
41629;SDS011;27322;49.488;8.480;2023-04-24T12:35:59;3.72;;;2.00;;
41629;SDS011;27322;49.488;8.480;2023-04-24T12:38:25;4.53;;;2.20;;
41629;SDS011;27322;49.488;8.480;2023-04-24T12:41:08;5.07;;;2.30;;
41629;SDS011;27322;49.488;8.480;2023-04-24T12:43:35;6.70;;;2.00;;
41629;SDS011;27322;49.488;8.480;2023-04-24T12:46:01;5.75;;;2.28;;
41629;SDS011;27322;49.488;8.480;2023-04-24T12:48:27;4.72;;;2.50;;
41629;SDS011;27322;49.488;8.480;2023-04-24T12:50:53;5.57;;;2.40;;
41629;SDS011;27322;49.488;8.480;2023-04-24T12:53:19;7.85;;;2.83;;
41629;SDS011;27322;49.488;8.480;2023-04-24T12:55:44;5.72;;;2.58;;
41629;SDS011;27322;49.488;8.480;2023-04-24T12:58:11;3.55;;;2.15;;
41629;SDS011;27322;49.488;8.480;2023-04-24T13:00:38;7.20;;;3.00;;
41629;SDS011;27322;49.488;8.480;2023-04-24T13:03:04;8.95;;;2.50;;
41629;SDS011;27322;49.488;8.480;2023-04-24T13:05:30;14.20;;;3.42;;
41629;SDS011;27322;49.488;8.480;2023-04-24T13:07:55;4.78;;;2.47;;
41629;SDS011;27322;49.488;8.480;2023-04-24T13:10:22;5.70;;;2.40;;
41629;SDS011;27322;49.488;8.480;2023-04-24T13:12:47;5.55;;;2.42;;
41629;SDS011;27322;49.488;8.480;2023-04-24T13:15:13;7.32;;;2.25;;
41629;SDS011;27322;49.488;8.480;2023-04-24T13:17:39;5.78;;;2.53;;
41629;SDS011;27322;49.488;8.480;2023-04-24T13:20:05;4.60;;;2.55;;
41629;SDS011;27322;49.488;8.480;2023-04-24T13:22:31;9.18;;;2.25;;
41629;SDS011;27322;49.488;8.480;2023-04-24T13:24:56;6.05;;;2.42;;
41629;SDS011;27322;49.488;8.480;2023-04-24T13:27:22;5.10;;;2.30;;
41629;SDS011;27322;49.488;8.480;2023-04-24T13:29:48;4.80;;;2.10;;
41629;SDS011;27322;49.488;8.480;2023-04-24T13:32:13;5.47;;;2.40;;
41629;SDS011;27322;49.488;8.480;2023-04-24T13:34:39;4.70;;;2.30;;
41629;SDS011;27322;49.488;8.480;2023-04-24T13:37:05;4.82;;;2.35;;
41629;SDS011;27322;49.488;8.480;2023-04-24T13:39:30;4.72;;;2.30;;
41629;SDS011;27322;49.488;8.480;2023-04-24T13:41:57;5.30;;;2.30;;
41629;SDS011;27322;49.488;8.480;2023-04-24T13:44:23;5.00;;;2.42;;
41629;SDS011;27322;49.488;8.480;2023-04-24T13:46:50;4.47;;;2.47;;
41629;SDS011;27322;49.488;8.480;2023-04-24T13:49:19;6.40;;;2.58;;
41629;SDS011;27322;49.488;8.480;2023-04-24T13:51:45;4.78;;;2.40;;
41629;SDS011;27322;49.488;8.480;2023-04-24T13:54:11;5.00;;;2.10;;
41629;SDS011;27322;49.488;8.480;2023-04-24T13:56:36;3.75;;;2.03;;
41629;SDS011;27322;49.488;8.480;2023-04-24T13:59:03;5.32;;;2.13;;
41629;SDS011;27322;49.488;8.480;2023-04-24T14:01:28;5.38;;;2.20;;
41629;SDS011;27322;49.488;8.480;2023-04-24T14:03:54;5.18;;;1.90;;
41629;SDS011;27322;49.488;8.480;2023-04-24T14:06:20;5.03;;;2.17;;
41629;SDS011;27322;49.488;8.480;2023-04-24T14:08:47;5.30;;;1.95;;
41629;SDS011;27322;49.488;8.480;2023-04-24T14:11:15;4.88;;;2.05;;
41629;SDS011;27322;49.488;8.480;2023-04-24T14:13:41;4.47;;;2.10;;
41629;SDS011;27322;49.488;8.480;2023-04-24T14:16:10;5.97;;;2.25;;
41629;SDS011;27322;49.488;8.480;2023-04-24T14:18:36;6.25;;;2.17;;
41629;SDS011;27322;49.488;8.480;2023-04-24T14:21:02;7.68;;;2.65;;
41629;SDS011;27322;49.488;8.480;2023-04-24T14:23:29;7.05;;;2.58;;
41629;SDS011;27322;49.488;8.480;2023-04-24T14:25:55;5.07;;;2.15;;
41629;SDS011;27322;49.488;8.480;2023-04-24T14:28:21;6.15;;;2.33;;
41629;SDS011;27322;49.488;8.480;2023-04-24T14:30:47;6.28;;;2.42;;
41629;SDS011;27322;49.488;8.480;2023-04-24T14:33:13;9.65;;;2.53;;
41629;SDS011;27322;49.488;8.480;2023-04-24T14:35:39;5.13;;;2.42;;
41629;SDS011;27322;49.488;8.480;2023-04-24T14:38:06;4.90;;;2.13;;
41629;SDS011;27322;49.488;8.480;2023-04-24T14:40:32;6.60;;;2.30;;
41629;SDS011;27322;49.488;8.480;2023-04-24T14:42:58;4.97;;;2.08;;
41629;SDS011;27322;49.488;8.480;2023-04-24T14:45:26;4.15;;;2.00;;
41629;SDS011;27322;49.488;8.480;2023-04-24T14:47:52;4.90;;;1.98;;
41629;SDS011;27322;49.488;8.480;2023-04-24T14:50:19;5.82;;;2.78;;
41629;SDS011;27322;49.488;8.480;2023-04-24T14:52:45;3.92;;;2.17;;